createdAt,value
2018-06-05T00:00:33.365Z,0
2018-06-05T00:01:13.890Z,0
2018-06-05T00:01:54.435Z,0
2018-06-05T00:02:34.960Z,0
2018-06-05T00:03:15.467Z,0
2018-06-05T00:03:55.989Z,0
2018-06-05T00:04:36.516Z,0
2018-06-05T00:05:17.038Z,0
2018-06-05T00:05:57.567Z,0
2018-06-05T00:06:38.083Z,0
2018-06-05T00:07:18.600Z,0
2018-06-05T00:07:59.110Z,0
2018-06-05T00:08:39.633Z,0
2018-06-05T00:09:20.153Z,0
2018-06-05T00:10:00.669Z,0
2018-06-05T00:10:41.176Z,0
2018-06-05T00:11:21.704Z,0
2018-06-05T00:12:02.251Z,0
2018-06-05T00:12:42.752Z,0
2018-06-05T00:13:23.299Z,0
2018-06-05T00:14:03.758Z,0
2018-06-05T00:14:44.270Z,0
2018-06-05T00:15:24.774Z,0
2018-06-05T00:16:05.305Z,0
2018-06-05T00:16:45.776Z,0
2018-06-05T00:17:26.294Z,0
2018-06-05T00:18:06.810Z,0
2018-06-05T00:18:47.332Z,0
2018-06-05T00:19:27.839Z,0
2018-06-05T00:20:08.367Z,0
2018-06-05T00:20:48.891Z,0
2018-06-05T00:21:29.425Z,0
2018-06-05T00:22:09.962Z,0
2018-06-05T00:22:50.495Z,0
2018-06-05T00:23:31.014Z,0
2018-06-05T00:24:11.509Z,0
2018-06-05T00:24:52.039Z,0
2018-06-05T00:25:32.528Z,0
2018-06-05T00:26:13.897Z,0
2018-06-05T00:26:53.551Z,0
2018-06-05T00:27:34.032Z,0
2018-06-05T00:28:14.520Z,0
2018-06-05T00:28:55.029Z,0
2018-06-05T00:29:35.525Z,0
2018-06-05T00:30:16.023Z,0
2018-06-05T00:30:56.542Z,0
2018-06-05T00:31:37.063Z,0
2018-06-05T00:32:17.584Z,0
2018-06-05T00:32:58.103Z,0
2018-06-05T00:33:38.622Z,0
2018-06-05T00:34:19.146Z,0
2018-06-05T00:34:59.679Z,0
2018-06-05T00:35:40.205Z,0
2018-06-05T00:36:20.727Z,0
2018-06-05T00:37:01.266Z,0
2018-06-05T00:37:41.793Z,0
2018-06-05T00:38:22.312Z,0
2018-06-05T00:39:02.833Z,0
2018-06-05T00:39:43.353Z,0
2018-06-05T00:40:23.879Z,0
2018-06-05T00:41:04.400Z,0
2018-06-05T00:41:44.915Z,0
2018-06-05T00:42:25.448Z,0
2018-06-05T00:43:05.960Z,0
2018-06-05T00:43:46.491Z,0
2018-06-05T00:44:27.010Z,0
2018-06-05T00:45:07.524Z,0
2018-06-05T00:45:48.044Z,0
2018-06-05T00:46:28.560Z,0
2018-06-05T00:47:09.076Z,0
2018-06-05T00:47:49.593Z,0
2018-06-05T00:48:30.122Z,0
2018-06-05T00:49:10.633Z,0
2018-06-05T00:49:51.171Z,0
2018-06-05T00:50:31.667Z,0
2018-06-05T00:51:12.194Z,0
2018-06-05T00:51:52.684Z,0
2018-06-05T00:52:33.204Z,0
2018-06-05T00:53:13.688Z,0
2018-06-05T00:53:54.209Z,0
2018-06-05T00:54:34.692Z,0
2018-06-05T00:55:15.193Z,0
2018-06-05T00:55:55.703Z,0
2018-06-05T00:56:36.222Z,0
2018-06-05T00:57:16.728Z,0
2018-06-05T00:57:57.231Z,0
2018-06-05T00:58:37.749Z,0
2018-06-05T00:59:18.258Z,0
2018-06-05T00:59:58.769Z,0
2018-06-05T01:00:39.282Z,0
2018-06-05T01:01:19.790Z,0
2018-06-05T01:02:00.293Z,0
2018-06-05T01:02:40.801Z,0
2018-06-05T01:03:21.314Z,0
2018-06-05T01:04:01.811Z,0
2018-06-05T01:04:42.335Z,0
2018-06-05T01:05:22.833Z,0
2018-06-05T01:06:03.341Z,0
2018-06-05T01:06:43.816Z,0
2018-06-05T01:07:24.352Z,0
2018-06-05T01:08:04.833Z,0
2018-06-05T01:08:45.337Z,0
2018-06-05T01:09:25.857Z,0
2018-06-05T01:10:06.388Z,0
2018-06-05T01:10:46.923Z,0
2018-06-05T01:11:27.439Z,0
2018-06-05T01:12:07.953Z,0
2018-06-05T01:12:48.486Z,0
2018-06-05T01:13:29.014Z,0
2018-06-05T01:14:09.491Z,0
2018-06-05T01:14:50.013Z,0
2018-06-05T01:15:30.531Z,0
2018-06-05T01:16:11.018Z,0
2018-06-05T01:16:51.610Z,0
2018-06-05T01:17:32.046Z,0
2018-06-05T01:18:12.563Z,0
2018-06-05T01:18:53.085Z,0
2018-06-05T01:19:33.589Z,0
2018-06-05T01:20:14.116Z,0
2018-06-05T01:20:54.643Z,0
2018-06-05T01:21:35.160Z,0
2018-06-05T01:22:15.673Z,0
2018-06-05T01:22:56.199Z,0
2018-06-05T01:23:36.758Z,0
2018-06-05T01:24:17.223Z,0
2018-06-05T01:24:57.725Z,0
2018-06-05T01:25:38.234Z,0
2018-06-05T01:26:18.724Z,0
2018-06-05T01:26:59.231Z,0
2018-06-05T01:27:39.750Z,0
2018-06-05T01:28:20.260Z,0
2018-06-05T01:29:00.773Z,0
2018-06-05T01:29:41.296Z,0
2018-06-05T01:30:21.830Z,0
2018-06-05T01:31:02.338Z,0
2018-06-05T01:31:42.854Z,0
2018-06-05T01:32:23.386Z,0
2018-06-05T01:33:03.910Z,0
2018-06-05T01:33:44.434Z,0
2018-06-05T01:34:24.967Z,0
2018-06-05T01:35:05.484Z,0
2018-06-05T01:35:46.007Z,0
2018-06-05T01:36:26.520Z,0
2018-06-05T01:37:07.042Z,0
2018-06-05T01:37:47.546Z,0
2018-06-05T01:38:28.068Z,0
2018-06-05T01:39:08.588Z,0
2018-06-05T01:39:49.102Z,0
2018-06-05T01:40:29.617Z,0
2018-06-05T01:41:10.127Z,0
2018-06-05T01:41:50.613Z,0
2018-06-05T01:42:31.111Z,0
2018-06-05T01:43:11.631Z,0
2018-06-05T01:43:52.183Z,0
2018-06-05T01:44:32.645Z,0
2018-06-05T01:45:13.157Z,0
2018-06-05T01:45:53.659Z,0
2018-06-05T01:46:34.175Z,0
2018-06-05T01:47:14.680Z,0
2018-06-05T01:47:55.182Z,0
2018-06-05T01:48:35.682Z,0
2018-06-05T01:49:16.175Z,0
2018-06-05T01:49:56.696Z,0
2018-06-05T01:50:37.227Z,0
2018-06-05T01:51:17.724Z,0
2018-06-05T01:51:58.227Z,0
2018-06-05T01:52:38.716Z,0
2018-06-05T01:53:19.209Z,0
2018-06-05T01:53:59.717Z,0
2018-06-05T01:54:40.205Z,0
2018-06-05T01:55:20.721Z,0
2018-06-05T01:56:01.237Z,0
2018-06-05T01:56:41.694Z,0
2018-06-05T01:57:22.213Z,0
2018-06-05T01:58:02.694Z,0
2018-06-05T01:58:43.211Z,0
2018-06-05T01:59:23.721Z,0
2018-06-05T02:00:04.264Z,0
2018-06-05T02:00:44.693Z,0
2018-06-05T02:01:25.206Z,0
2018-06-05T02:02:05.707Z,0
2018-06-05T02:02:46.254Z,0
2018-06-05T02:03:26.755Z,0
2018-06-05T02:04:07.223Z,0
2018-06-05T02:04:47.740Z,0
2018-06-05T02:05:28.251Z,0
2018-06-05T02:06:08.758Z,0
2018-06-05T02:06:49.271Z,0
2018-06-05T02:07:29.773Z,0
2018-06-05T02:08:10.275Z,0
2018-06-05T02:08:50.798Z,0
2018-06-05T02:09:31.323Z,0
2018-06-05T02:10:11.809Z,0
2018-06-05T02:10:52.325Z,0
2018-06-05T02:11:32.844Z,0
2018-06-05T02:12:13.354Z,0
2018-06-05T02:12:53.884Z,0
2018-06-05T02:13:34.402Z,0
2018-06-05T02:14:14.917Z,0
2018-06-05T02:14:55.440Z,0
2018-06-05T02:15:35.960Z,0
2018-06-05T02:16:16.485Z,0
2018-06-05T02:16:56.999Z,0
2018-06-05T02:17:37.530Z,0
2018-06-05T02:18:18.055Z,0
2018-06-05T02:18:58.561Z,0
2018-06-05T02:19:39.087Z,0
2018-06-05T02:20:19.622Z,0
2018-06-05T02:21:00.137Z,0
2018-06-05T02:21:40.657Z,0
2018-06-05T02:22:21.172Z,0
2018-06-05T02:23:01.691Z,0
2018-06-05T02:23:42.203Z,0
2018-06-05T02:24:22.744Z,0
2018-06-05T02:25:03.267Z,0
2018-06-05T02:25:43.801Z,0
2018-06-05T02:26:24.316Z,0
2018-06-05T02:27:04.856Z,0
2018-06-05T02:27:45.385Z,0
2018-06-05T02:28:25.899Z,0
2018-06-05T02:29:06.426Z,0
2018-06-05T02:29:46.939Z,0
2018-06-05T02:30:27.450Z,0
2018-06-05T02:31:07.965Z,0
2018-06-05T02:31:48.502Z,0
2018-06-05T02:32:29.031Z,0
2018-06-05T02:33:09.551Z,0
2018-06-05T02:33:50.068Z,0
2018-06-05T02:34:30.618Z,0
2018-06-05T02:35:11.142Z,0
2018-06-05T02:35:51.662Z,0
2018-06-05T02:36:32.166Z,0
2018-06-05T02:37:12.696Z,0
2018-06-05T02:37:53.208Z,0
2018-06-05T02:38:33.746Z,0
2018-06-05T02:39:14.256Z,0
2018-06-05T02:39:54.781Z,0
2018-06-05T02:40:35.304Z,0
2018-06-05T02:41:15.805Z,0
2018-06-05T02:41:56.298Z,0
2018-06-05T02:42:36.805Z,0
2018-06-05T02:43:17.277Z,0
2018-06-05T02:43:57.776Z,4
2018-06-05T02:44:38.292Z,4
2018-06-05T02:45:18.827Z,4
2018-06-05T02:45:59.326Z,4
2018-06-05T02:46:39.824Z,0
2018-06-05T02:47:20.321Z,0
2018-06-05T02:48:00.835Z,0
2018-06-05T02:48:41.349Z,4
2018-06-05T02:49:21.869Z,4
2018-06-05T02:50:02.351Z,4
2018-06-05T02:50:42.889Z,4
2018-06-05T02:51:23.379Z,4
2018-06-05T02:52:03.907Z,8
2018-06-05T02:52:44.442Z,4
2018-06-05T02:53:24.963Z,8
2018-06-05T02:54:05.463Z,8
2018-06-05T02:54:45.956Z,4
2018-06-05T02:55:26.481Z,4
2018-06-05T02:56:06.990Z,12
2018-06-05T02:56:47.507Z,12
2018-06-05T02:57:28.034Z,12
2018-06-05T02:58:08.544Z,12
2018-06-05T02:58:49.034Z,12
2018-06-05T02:59:29.572Z,12
2018-06-05T03:00:10.105Z,16
2018-06-05T03:00:50.620Z,16
2018-06-05T03:01:31.140Z,16
2018-06-05T03:02:11.643Z,20
2018-06-05T03:02:52.175Z,20
2018-06-05T03:03:32.683Z,24
2018-06-05T03:04:13.239Z,24
2018-06-05T03:04:53.703Z,28
2018-06-05T03:05:34.173Z,28
2018-06-05T03:06:14.684Z,32
2018-06-05T03:06:55.158Z,36
2018-06-05T03:07:35.670Z,40
2018-06-05T03:08:16.186Z,40
2018-06-05T03:08:56.696Z,44
2018-06-05T03:09:37.226Z,48
2018-06-05T03:10:17.736Z,52
2018-06-05T03:10:58.268Z,56
2018-06-05T03:11:38.793Z,60
2018-06-05T03:12:19.290Z,64
2018-06-05T03:12:59.817Z,68
2018-06-05T03:13:40.349Z,72
2018-06-05T03:14:20.859Z,76
2018-06-05T03:15:01.379Z,84
2018-06-05T03:15:41.896Z,88
2018-06-05T03:16:22.415Z,92
2018-06-05T03:17:02.944Z,100
2018-06-05T03:17:43.473Z,104
2018-06-05T03:18:23.998Z,112
2018-06-05T03:19:04.473Z,116
2018-06-05T03:19:45.003Z,128
2018-06-05T03:20:25.479Z,132
2018-06-05T03:21:05.982Z,140
2018-06-05T03:21:46.484Z,144
2018-06-05T03:22:26.969Z,156
2018-06-05T03:23:07.470Z,164
2018-06-05T03:23:47.967Z,172
2018-06-05T03:24:28.464Z,180
2018-06-05T03:25:08.933Z,192
2018-06-05T03:25:49.448Z,200
2018-06-05T03:26:29.962Z,212
2018-06-05T03:27:10.400Z,220
2018-06-05T03:27:50.910Z,236
2018-06-05T03:28:31.438Z,248
2018-06-05T03:29:11.963Z,260
2018-06-05T03:29:52.473Z,272
2018-06-05T03:30:33.053Z,284
2018-06-05T03:31:13.541Z,296
2018-06-05T03:31:54.068Z,316
2018-06-05T03:32:34.565Z,328
2018-06-05T03:33:15.098Z,348
2018-06-05T03:33:55.635Z,368
2018-06-05T03:34:36.150Z,388
2018-06-05T03:35:16.668Z,408
2018-06-05T03:35:57.192Z,428
2018-06-05T03:36:37.709Z,448
2018-06-05T03:37:18.219Z,468
2018-06-05T03:37:58.740Z,488
2018-06-05T03:38:39.236Z,512
2018-06-05T03:39:19.777Z,544
2018-06-05T03:40:00.270Z,568
2018-06-05T03:40:40.783Z,596
2018-06-05T03:41:21.289Z,624
2018-06-05T03:42:01.802Z,656
2018-06-05T03:42:42.335Z,680
2018-06-05T03:43:22.833Z,704
2018-06-05T03:44:03.336Z,728
2018-06-05T03:44:43.861Z,756
2018-06-05T03:45:24.370Z,788
2018-06-05T03:46:04.886Z,816
2018-06-05T03:46:45.388Z,844
2018-06-05T03:47:25.899Z,864
2018-06-05T03:48:06.413Z,884
2018-06-05T03:48:46.941Z,900
2018-06-05T03:49:27.451Z,912
2018-06-05T03:50:07.974Z,920
2018-06-05T03:50:48.506Z,928
2018-06-05T03:51:29.027Z,940
2018-06-05T03:52:09.548Z,948
2018-06-05T03:52:50.090Z,968
2018-06-05T03:53:30.637Z,992
2018-06-05T03:54:11.166Z,1024
2018-06-05T03:54:51.685Z,1060
2018-06-05T03:55:32.209Z,1088
2018-06-05T03:56:12.726Z,1124
2018-06-05T03:56:53.246Z,1164
2018-06-05T03:57:33.774Z,1212
2018-06-05T03:58:14.287Z,1256
2018-06-05T03:58:54.800Z,1312
2018-06-05T03:59:35.321Z,1360
2018-06-05T04:00:15.857Z,1408
2018-06-05T04:00:56.367Z,1452
2018-06-05T04:01:36.879Z,1500
2018-06-05T04:02:17.412Z,1544
2018-06-05T04:02:57.937Z,1596
2018-06-05T04:03:38.460Z,1656
2018-06-05T04:04:19.019Z,1720
2018-06-05T04:04:59.502Z,1808
2018-06-05T04:05:40.016Z,1888
2018-06-05T04:06:20.533Z,1932
2018-06-05T04:07:01.068Z,1940
2018-06-05T04:07:41.592Z,1920
2018-06-05T04:08:22.113Z,1940
2018-06-05T04:09:02.639Z,1980
2018-06-05T04:09:43.141Z,2020
2018-06-05T04:10:23.668Z,2068
2018-06-05T04:11:04.197Z,2112
2018-06-05T04:11:44.752Z,2144
2018-06-05T04:12:25.244Z,2188
2018-06-05T04:13:05.767Z,2228
2018-06-05T04:13:46.295Z,2264
2018-06-05T04:14:26.796Z,2308
2018-06-05T04:15:07.299Z,2352
2018-06-05T04:15:47.824Z,2392
2018-06-05T04:16:28.337Z,2432
2018-06-05T04:17:08.859Z,2472
2018-06-05T04:17:49.376Z,2512
2018-06-05T04:18:29.894Z,2552
2018-06-05T04:19:10.417Z,2588
2018-06-05T04:19:50.935Z,2636
2018-06-05T04:20:31.463Z,2680
2018-06-05T04:21:11.971Z,2716
2018-06-05T04:21:52.488Z,2752
2018-06-05T04:22:33.006Z,2800
2018-06-05T04:23:13.510Z,2844
2018-06-05T04:23:54.025Z,2876
2018-06-05T04:24:34.531Z,2900
2018-06-05T04:25:15.020Z,2936
2018-06-05T04:25:55.527Z,2972
2018-06-05T04:26:36.060Z,3004
2018-06-05T04:27:16.594Z,3032
2018-06-05T04:27:57.127Z,3072
2018-06-05T04:28:37.663Z,3116
2018-06-05T04:29:18.763Z,3160
2018-06-05T04:29:59.282Z,3196
2018-06-05T04:30:39.784Z,3236
2018-06-05T04:31:20.303Z,3308
2018-06-05T04:32:00.826Z,3456
2018-06-05T04:32:41.347Z,3720
2018-06-05T04:33:21.877Z,4192
2018-06-05T04:34:02.406Z,4856
2018-06-05T04:34:42.919Z,4884
2018-06-05T04:35:23.437Z,4492
2018-06-05T04:36:03.974Z,4224
2018-06-05T04:36:44.480Z,4368
2018-06-05T04:37:25.002Z,4408
2018-06-05T04:38:05.541Z,4596
2018-06-05T04:38:46.067Z,4692
2018-06-05T04:39:26.585Z,4332
2018-06-05T04:40:07.130Z,4104
2018-06-05T04:40:47.656Z,4000
2018-06-05T04:41:28.210Z,3936
2018-06-05T04:42:08.714Z,3952
2018-06-05T04:42:49.270Z,4020
2018-06-05T04:43:29.757Z,4260
2018-06-05T04:44:10.282Z,4776
2018-06-05T04:44:50.823Z,5036
2018-06-05T04:45:31.357Z,4756
2018-06-05T04:46:11.873Z,4344
2018-06-05T04:46:52.387Z,4376
2018-06-05T04:47:32.906Z,4356
2018-06-05T04:48:13.438Z,4460
2018-06-05T04:48:53.962Z,4884
2018-06-05T04:49:34.484Z,5576
2018-06-05T04:50:15.031Z,5620
2018-06-05T04:50:55.533Z,5248
2018-06-05T04:51:36.060Z,4824
2018-06-05T04:52:16.577Z,4632
2018-06-05T04:52:57.133Z,4476
2018-06-05T04:53:37.670Z,4412
2018-06-05T04:54:18.201Z,4404
2018-06-05T04:54:58.708Z,4540
2018-06-05T04:55:39.237Z,4616
2018-06-05T04:56:19.778Z,4836
2018-06-05T04:57:00.299Z,5032
2018-06-05T04:57:40.825Z,5180
2018-06-05T04:58:21.339Z,5060
2018-06-05T04:59:01.860Z,4916
2018-06-05T04:59:42.397Z,4972
2018-06-05T05:00:22.916Z,4920
2018-06-05T05:01:03.441Z,4792
2018-06-05T05:01:43.980Z,4636
2018-06-05T05:02:24.503Z,4660
2018-06-05T05:03:05.033Z,4648
2018-06-05T05:03:45.550Z,4656
2018-06-05T05:04:26.088Z,4648
2018-06-05T05:06:54.622Z,4884
2018-06-05T05:07:35.140Z,4840
2018-06-05T05:08:15.660Z,5180
2018-06-05T05:08:56.183Z,5024
2018-06-05T05:09:36.710Z,4888
2018-06-05T05:10:17.231Z,5004
2018-06-05T05:10:57.748Z,5128
2018-06-05T05:11:38.276Z,5156
2018-06-05T05:12:18.783Z,5176
2018-06-05T05:12:59.314Z,5156
2018-06-05T05:13:39.839Z,5176
2018-06-05T05:14:20.342Z,5400
2018-06-05T05:15:00.859Z,5600
2018-06-05T05:15:41.387Z,5600
2018-06-05T05:16:21.934Z,5688
2018-06-05T05:17:02.415Z,5920
2018-06-05T05:17:42.955Z,6408
2018-06-05T05:18:23.444Z,6912
2018-06-05T05:19:03.976Z,6800
2018-06-05T05:19:44.495Z,6380
2018-06-05T05:20:24.994Z,6444
2018-06-05T05:21:05.510Z,5772
2018-06-05T05:21:46.046Z,5820
2018-06-05T05:22:26.568Z,5228
2018-06-05T05:23:07.093Z,5336
2018-06-05T05:23:47.621Z,5260
2018-06-05T05:24:28.164Z,5300
2018-06-05T05:25:08.666Z,5428
2018-06-05T05:25:49.194Z,5540
2018-06-05T05:26:29.705Z,6508
2018-06-05T05:27:10.209Z,7408
2018-06-05T05:27:50.729Z,8032
2018-06-05T05:28:31.235Z,7232
2018-06-05T05:29:11.742Z,6108
2018-06-05T05:29:52.277Z,5600
2018-06-05T05:30:32.767Z,5420
2018-06-05T05:31:13.303Z,5424
2018-06-05T05:31:53.818Z,5220
2018-06-05T05:32:34.343Z,5188
2018-06-05T05:33:14.866Z,5184
2018-06-05T05:33:55.394Z,5204
2018-06-05T05:34:35.893Z,5168
2018-06-05T05:35:16.411Z,5164
2018-06-05T05:35:56.956Z,5156
2018-06-05T05:36:37.420Z,5168
2018-06-05T05:37:17.949Z,5168
2018-06-05T05:37:58.469Z,5176
2018-06-05T05:38:39.066Z,5184
2018-06-05T05:39:19.527Z,5216
2018-06-05T05:40:00.053Z,5216
2018-06-05T05:40:40.578Z,5220
2018-06-05T05:41:21.102Z,5244
2018-06-05T05:42:01.632Z,5276
2018-06-05T05:42:42.151Z,5320
2018-06-05T05:43:22.684Z,5332
2018-06-05T05:44:03.195Z,5392
2018-06-05T05:44:43.715Z,5296
2018-06-05T05:45:24.246Z,5340
2018-06-05T05:46:04.770Z,5392
2018-06-05T05:46:45.289Z,5404
2018-06-05T05:47:25.797Z,5456
2018-06-05T05:48:06.290Z,5488
2018-06-05T05:48:46.797Z,5548
2018-06-05T05:49:27.320Z,5556
2018-06-05T05:50:07.853Z,5616
2018-06-05T05:50:48.340Z,5760
2018-06-05T05:51:28.854Z,5876
2018-06-05T05:52:09.385Z,6120
2018-06-05T05:52:49.908Z,6936
2018-06-05T05:53:30.430Z,8740
2018-06-05T05:54:10.945Z,9236
2018-06-05T05:54:51.449Z,10868
2018-06-05T05:55:31.951Z,11968
2018-06-05T05:56:12.465Z,12524
2018-06-05T05:56:52.986Z,12252
2018-06-05T05:57:33.509Z,11476
2018-06-05T05:58:14.049Z,10660
2018-06-05T05:58:54.560Z,10124
2018-06-05T05:59:35.075Z,9836
2018-06-05T06:00:15.589Z,9624
2018-06-05T06:00:56.106Z,9456
2018-06-05T06:01:36.640Z,9312
2018-06-05T06:02:17.189Z,9212
2018-06-05T06:02:57.688Z,9084
2018-06-05T06:03:38.211Z,9004
2018-06-05T06:04:18.733Z,8988
2018-06-05T06:04:59.253Z,9056
2018-06-05T06:05:39.781Z,9116
2018-06-05T06:06:20.307Z,9192
2018-06-05T06:07:00.824Z,9224
2018-06-05T06:07:41.355Z,9296
2018-06-05T06:08:21.844Z,9360
2018-06-05T06:09:02.388Z,9356
2018-06-05T06:09:42.903Z,9292
2018-06-05T06:10:23.426Z,9260
2018-06-05T06:11:03.957Z,9220
2018-06-05T06:11:44.480Z,9184
2018-06-05T06:12:24.991Z,9116
2018-06-05T06:13:05.510Z,9064
2018-06-05T06:13:46.033Z,9052
2018-06-05T06:14:26.551Z,9056
2018-06-05T06:15:07.077Z,9112
2018-06-05T06:15:47.603Z,9160
2018-06-05T06:16:28.132Z,9172
2018-06-05T06:17:08.664Z,9156
2018-06-05T06:17:49.198Z,9136
2018-06-05T06:18:29.714Z,9132
2018-06-05T06:19:10.263Z,9120
2018-06-05T06:19:50.799Z,9116
2018-06-05T06:20:31.318Z,9112
2018-06-05T06:21:11.845Z,9112
2018-06-05T06:21:52.367Z,9104
2018-06-05T06:22:32.907Z,9092
2018-06-05T06:23:13.430Z,9068
2018-06-05T06:23:53.962Z,9064
2018-06-05T06:24:34.472Z,9028
2018-06-05T06:25:14.989Z,8988
2018-06-05T06:25:55.565Z,8960
2018-06-05T06:26:36.029Z,8924
2018-06-05T06:27:16.550Z,8896
2018-06-05T06:27:57.081Z,8852
2018-06-05T06:28:37.605Z,8832
2018-06-05T06:29:18.126Z,8780
2018-06-05T06:29:58.646Z,8756
2018-06-05T06:30:39.165Z,8740
2018-06-05T06:31:19.677Z,8756
2018-06-05T06:32:00.205Z,8752
2018-06-05T06:32:40.735Z,8752
2018-06-05T06:33:21.255Z,8732
2018-06-05T06:34:01.800Z,8728
2018-06-05T06:34:42.338Z,8744
2018-06-05T06:35:22.902Z,8740
2018-06-05T06:36:03.431Z,8728
2018-06-05T06:36:43.979Z,8716
2018-06-05T06:37:24.495Z,8704
2018-06-05T06:38:05.020Z,8724
2018-06-05T06:38:45.556Z,8708
2018-06-05T06:39:26.097Z,8676
2018-06-05T06:40:06.636Z,8636
2018-06-05T06:40:47.175Z,8608
2018-06-05T06:41:27.662Z,8616
2018-06-05T06:42:08.185Z,8576
2018-06-05T06:42:48.710Z,8584
2018-06-05T06:43:29.231Z,8556
2018-06-05T06:44:09.754Z,8564
2018-06-05T06:44:50.280Z,8548
2018-06-05T06:45:30.801Z,8560
2018-06-05T06:46:11.330Z,8532
2018-06-05T06:46:51.863Z,8540
2018-06-05T06:47:32.386Z,8520
2018-06-05T06:48:12.907Z,8528
2018-06-05T06:48:53.468Z,8480
2018-06-05T06:49:33.937Z,8424
2018-06-05T06:50:14.471Z,8420
2018-06-05T06:50:54.987Z,8412
2018-06-05T06:51:35.518Z,8384
2018-06-05T06:52:16.036Z,8356
2018-06-05T06:52:56.542Z,8356
2018-06-05T06:53:37.063Z,8308
2018-06-05T06:54:17.583Z,8336
2018-06-05T06:54:58.119Z,8336
2018-06-05T06:55:38.674Z,8328
2018-06-05T06:56:19.165Z,8284
2018-06-05T06:56:59.678Z,8260
2018-06-05T06:57:40.165Z,8236
2018-06-05T06:58:20.697Z,8216
2018-06-05T06:59:01.229Z,8168
2018-06-05T06:59:41.748Z,8156
2018-06-05T07:00:22.270Z,8152
2018-06-05T07:01:02.805Z,8144
2018-06-05T07:01:43.325Z,8140
2018-06-05T07:02:23.842Z,8140
2018-06-05T07:03:04.372Z,8124
2018-06-05T07:03:44.912Z,8112
2018-06-05T07:04:25.431Z,8104
2018-06-05T07:05:05.925Z,8108
2018-06-05T07:05:46.448Z,8112
2018-06-05T07:06:26.969Z,8092
2018-06-05T07:07:07.519Z,8068
2018-06-05T07:07:48.040Z,8040
2018-06-05T07:08:28.555Z,8032
2018-06-05T07:09:09.065Z,8012
2018-06-05T07:09:49.583Z,7992
2018-06-05T07:10:30.131Z,7940
2018-06-05T07:11:10.632Z,7936
2018-06-05T07:11:51.166Z,7956
2018-06-05T07:12:31.676Z,7936
2018-06-05T07:13:12.202Z,7936
2018-06-05T07:13:52.716Z,7928
2018-06-05T07:14:33.243Z,7916
2018-06-05T07:15:13.757Z,7904
2018-06-05T07:15:54.274Z,7888
2018-06-05T07:16:34.803Z,7888
2018-06-05T07:17:15.336Z,7864
2018-06-05T07:17:55.867Z,7880
2018-06-05T07:18:36.412Z,7844
2018-06-05T07:19:16.928Z,7836
2018-06-05T07:19:57.448Z,7804
2018-06-05T07:20:37.963Z,7776
2018-06-05T07:21:18.503Z,7748
2018-06-05T07:21:59.019Z,7736
2018-06-05T07:22:39.557Z,7700
2018-06-05T07:23:20.083Z,7664
2018-06-05T07:24:00.606Z,7644
2018-06-05T07:24:41.125Z,7632
2018-06-05T07:25:21.644Z,7612
2018-06-05T07:26:02.181Z,7604
2018-06-05T07:26:42.711Z,7580
2018-06-05T07:27:23.177Z,7544
2018-06-05T07:28:03.691Z,7528
2018-06-05T07:28:44.204Z,7524
2018-06-05T07:29:24.732Z,7528
2018-06-05T07:30:05.237Z,7512
2018-06-05T07:30:45.769Z,7476
2018-06-05T07:31:26.281Z,7436
2018-06-05T07:32:06.808Z,7380
2018-06-05T07:32:47.321Z,7364
2018-06-05T07:33:27.841Z,7364
2018-06-05T07:34:08.360Z,7324
2018-06-05T07:34:48.894Z,7316
2018-06-05T07:35:29.412Z,7300
2018-06-05T07:36:09.915Z,7288
2018-06-05T07:36:50.450Z,7272
2018-06-05T07:37:30.972Z,7236
2018-06-05T07:38:11.488Z,7220
2018-06-05T07:38:52.000Z,7192
2018-06-05T07:39:32.520Z,7168
2018-06-05T07:40:13.000Z,7144
2018-06-05T07:40:53.528Z,7120
2018-06-05T07:41:34.022Z,7096
2018-06-05T07:42:14.532Z,7088
2018-06-05T07:42:55.051Z,7084
2018-06-05T07:43:35.584Z,7060
2018-06-05T07:44:16.107Z,7048
2018-06-05T07:44:56.632Z,7012
2018-06-05T07:45:37.153Z,7000
2018-06-05T07:46:17.675Z,6980
2018-06-05T07:46:58.207Z,6948
2018-06-05T07:47:38.736Z,6908
2018-06-05T07:48:19.224Z,6872
2018-06-05T07:48:59.743Z,6840
2018-06-05T07:49:40.266Z,6808
2018-06-05T07:50:20.792Z,6796
2018-06-05T07:51:01.318Z,6772
2018-06-05T07:51:41.853Z,6772
2018-06-05T07:52:22.360Z,6752
2018-06-05T07:53:02.892Z,6716
2018-06-05T07:53:43.408Z,6700
2018-06-05T07:54:23.935Z,6680
2018-06-05T07:55:04.460Z,6668
2018-06-05T07:55:44.986Z,6640
2018-06-05T07:56:25.516Z,6616
2018-06-05T07:57:06.045Z,6584
2018-06-05T07:57:46.588Z,6552
2018-06-05T07:58:27.108Z,6524
2018-06-05T07:59:07.631Z,6484
2018-06-05T07:59:48.151Z,6444
2018-06-05T08:00:28.678Z,6416
2018-06-05T08:01:09.170Z,6392
2018-06-05T08:01:49.693Z,6368
2018-06-05T08:02:30.220Z,6328
2018-06-05T08:03:10.743Z,6308
2018-06-05T08:03:51.267Z,6284
2018-06-05T08:04:31.787Z,6248
2018-06-05T08:05:12.308Z,6212
2018-06-05T08:05:52.851Z,6180
2018-06-05T08:06:33.362Z,6168
2018-06-05T08:07:13.875Z,6152
2018-06-05T08:07:54.408Z,6144
2018-06-05T08:08:34.941Z,6124
2018-06-05T08:09:15.473Z,6088
2018-06-05T08:09:55.986Z,6056
2018-06-05T08:10:36.502Z,6028
2018-06-05T08:11:17.030Z,6004
2018-06-05T08:11:57.546Z,5976
2018-06-05T08:12:38.065Z,5932
2018-06-05T08:13:18.567Z,5896
2018-06-05T08:13:59.099Z,5868
2018-06-05T08:14:39.570Z,5840
2018-06-05T08:15:20.081Z,5816
2018-06-05T08:16:00.625Z,5768
2018-06-05T08:16:41.132Z,5736
2018-06-05T08:17:21.653Z,5720
2018-06-05T08:18:02.179Z,5700
2018-06-05T08:18:42.713Z,5668
2018-06-05T08:19:23.230Z,5640
2018-06-05T08:20:03.755Z,5620
2018-06-05T08:20:44.269Z,5600
2018-06-05T08:21:24.800Z,5580
2018-06-05T08:22:05.315Z,5556
2018-06-05T08:22:45.839Z,5516
2018-06-05T08:23:26.362Z,5464
2018-06-05T08:24:06.885Z,5380
2018-06-05T08:24:47.417Z,5284
2018-06-05T08:25:27.940Z,5180
2018-06-05T08:26:08.459Z,5076
2018-06-05T08:26:48.968Z,4992
2018-06-05T08:27:29.494Z,4924
2018-06-05T08:28:10.013Z,4864
2018-06-05T08:28:50.541Z,4844
2018-06-05T08:29:31.077Z,4828
2018-06-05T08:30:11.602Z,4812
2018-06-05T08:30:52.133Z,4812
2018-06-05T08:31:32.675Z,4792
2018-06-05T08:32:13.199Z,4780
2018-06-05T08:32:53.727Z,4764
2018-06-05T08:33:34.247Z,4748
2018-06-05T08:34:14.773Z,4736
2018-06-05T08:34:55.293Z,4720
2018-06-05T08:35:35.842Z,4712
2018-06-05T08:36:16.358Z,4696
2018-06-05T08:36:56.886Z,4696
2018-06-05T08:37:37.416Z,4680
2018-06-05T08:38:17.943Z,4668
2018-06-05T08:38:58.460Z,4656
2018-06-05T08:39:39.005Z,4636
2018-06-05T08:40:19.543Z,4612
2018-06-05T08:41:00.064Z,4596
2018-06-05T08:41:40.590Z,4584
2018-06-05T08:42:21.109Z,4572
2018-06-05T08:43:01.635Z,4564
2018-06-05T08:43:42.164Z,4548
2018-06-05T08:44:22.689Z,4520
2018-06-05T08:45:03.215Z,4504
2018-06-05T08:45:43.748Z,4484
2018-06-05T08:46:24.327Z,4476
2018-06-05T08:47:04.881Z,4452
2018-06-05T08:47:45.385Z,4444
2018-06-05T08:48:25.917Z,4432
2018-06-05T08:49:06.459Z,4416
2018-06-05T08:49:46.984Z,4388
2018-06-05T08:50:27.509Z,4368
2018-06-05T08:51:08.039Z,4348
2018-06-05T08:51:48.560Z,4336
2018-06-05T08:52:29.103Z,4312
2018-06-05T08:53:09.631Z,4292
2018-06-05T08:53:50.147Z,4280
2018-06-05T08:54:30.677Z,4280
2018-06-05T08:55:11.208Z,4268
2018-06-05T08:55:51.732Z,4264
2018-06-05T08:56:32.271Z,4252
2018-06-05T08:57:12.820Z,4240
2018-06-05T08:57:53.336Z,4232
2018-06-05T08:58:33.853Z,4208
2018-06-05T08:59:14.408Z,4208
2018-06-05T08:59:54.953Z,4204
2018-06-05T09:00:35.445Z,4188
2018-06-05T09:01:15.972Z,4180
2018-06-05T09:01:56.478Z,4172
2018-06-05T09:02:37.009Z,4156
2018-06-05T09:03:17.543Z,4140
2018-06-05T09:03:58.055Z,4132
2018-06-05T09:04:38.583Z,4132
2018-06-05T09:05:19.141Z,4124
2018-06-05T09:05:59.635Z,4108
2018-06-05T09:06:40.164Z,4092
2018-06-05T09:07:20.700Z,4084
2018-06-05T09:08:01.225Z,4076
2018-06-05T09:08:41.736Z,4064
2018-06-05T09:10:39.936Z,4032
2018-06-05T09:11:20.473Z,4020
2018-06-05T09:12:00.990Z,4008
2018-06-05T09:12:41.516Z,3992
2018-06-05T09:13:22.030Z,3964
2018-06-05T09:14:02.552Z,3952
2018-06-05T09:14:43.080Z,3932
2018-06-05T09:15:23.604Z,3928
2018-06-05T09:16:04.131Z,3920
2018-06-05T09:16:44.671Z,3916
2018-06-05T09:17:25.223Z,3904
2018-06-05T09:18:05.745Z,3900
2018-06-05T09:18:46.272Z,3884
2018-06-05T09:19:26.807Z,3896
2018-06-05T09:20:07.328Z,3892
2018-06-05T09:20:47.847Z,3880
2018-06-05T09:21:28.378Z,3884
2018-06-05T09:22:08.895Z,3872
2018-06-05T09:22:49.425Z,3868